sensor_id;sensor_type;location;lat;lon;timestamp;P1;durP1;ratioP1;P2;durP2;ratioP2
18407;SDS011;9330;52.210;21.174;2023-12-14T00:02:09;52.53;;;31.30;;
18407;SDS011;9330;52.210;21.174;2023-12-14T00:04:36;49.22;;;29.48;;
18407;SDS011;9330;52.210;21.174;2023-12-14T00:07:03;54.25;;;31.50;;
18407;SDS011;9330;52.210;21.174;2023-12-14T00:09:31;48.53;;;28.83;;
18407;SDS011;9330;52.210;21.174;2023-12-14T00:11:58;49.53;;;30.15;;
18407;SDS011;9330;52.210;21.174;2023-12-14T00:14:24;48.00;;;28.85;;
18407;SDS011;9330;52.210;21.174;2023-12-14T00:16:51;51.58;;;31.35;;
18407;SDS011;9330;52.210;21.174;2023-12-14T00:19:18;48.15;;;30.38;;
18407;SDS011;9330;52.210;21.174;2023-12-14T00:21:45;51.78;;;29.58;;
18407;SDS011;9330;52.210;21.174;2023-12-14T00:24:12;55.83;;;32.25;;
18407;SDS011;9330;52.210;21.174;2023-12-14T00:26:40;46.00;;;27.52;;
18407;SDS011;9330;52.210;21.174;2023-12-14T00:29:07;54.78;;;31.30;;
18407;SDS011;9330;52.210;21.174;2023-12-14T00:31:33;49.55;;;29.65;;
18407;SDS011;9330;52.210;21.174;2023-12-14T00:34:00;50.63;;;30.02;;
18407;SDS011;9330;52.210;21.174;2023-12-14T00:36:27;72.88;;;34.67;;
18407;SDS011;9330;52.210;21.174;2023-12-14T00:38:54;52.10;;;30.05;;
18407;SDS011;9330;52.210;21.174;2023-12-14T00:41:22;52.05;;;30.40;;
18407;SDS011;9330;52.210;21.174;2023-12-14T00:43:50;43.88;;;26.63;;
18407;SDS011;9330;52.210;21.174;2023-12-14T00:46:17;47.05;;;27.80;;
18407;SDS011;9330;52.210;21.174;2023-12-14T00:48:43;60.08;;;33.53;;
18407;SDS011;9330;52.210;21.174;2023-12-14T00:51:10;45.67;;;27.23;;
18407;SDS011;9330;52.210;21.174;2023-12-14T00:53:37;60.75;;;31.30;;
18407;SDS011;9330;52.210;21.174;2023-12-14T00:56:04;49.85;;;27.25;;
18407;SDS011;9330;52.210;21.174;2023-12-14T00:58:33;46.65;;;27.25;;
18407;SDS011;9330;52.210;21.174;2023-12-14T01:01:01;48.00;;;27.33;;
18407;SDS011;9330;52.210;21.174;2023-12-14T01:03:28;43.70;;;25.05;;
18407;SDS011;9330;52.210;21.174;2023-12-14T01:05:55;46.83;;;27.45;;
18407;SDS011;9330;52.210;21.174;2023-12-14T01:08:22;41.70;;;25.90;;
18407;SDS011;9330;52.210;21.174;2023-12-14T01:10:49;44.97;;;26.40;;
18407;SDS011;9330;52.210;21.174;2023-12-14T01:13:16;38.15;;;24.05;;
18407;SDS011;9330;52.210;21.174;2023-12-14T01:15:42;48.70;;;27.00;;
18407;SDS011;9330;52.210;21.174;2023-12-14T01:18:11;38.97;;;23.42;;
18407;SDS011;9330;52.210;21.174;2023-12-14T01:20:38;42.45;;;25.38;;
18407;SDS011;9330;52.210;21.174;2023-12-14T01:23:04;40.83;;;23.67;;
18407;SDS011;9330;52.210;21.174;2023-12-14T01:25:34;38.75;;;23.88;;
18407;SDS011;9330;52.210;21.174;2023-12-14T01:28:01;40.00;;;23.80;;
18407;SDS011;9330;52.210;21.174;2023-12-14T01:30:28;39.72;;;23.58;;
18407;SDS011;9330;52.210;21.174;2023-12-14T01:32:55;36.22;;;22.52;;
18407;SDS011;9330;52.210;21.174;2023-12-14T01:35:23;42.17;;;24.67;;
18407;SDS011;9330;52.210;21.174;2023-12-14T01:37:50;50.40;;;26.83;;
18407;SDS011;9330;52.210;21.174;2023-12-14T01:40:18;38.35;;;23.08;;
18407;SDS011;9330;52.210;21.174;2023-12-14T01:42:45;43.13;;;23.77;;
18407;SDS011;9330;52.210;21.174;2023-12-14T01:45:12;37.90;;;22.50;;
18407;SDS011;9330;52.210;21.174;2023-12-14T01:47:40;50.20;;;26.48;;
18407;SDS011;9330;52.210;21.174;2023-12-14T01:50:07;39.78;;;23.00;;
18407;SDS011;9330;52.210;21.174;2023-12-14T01:52:36;41.00;;;22.83;;
18407;SDS011;9330;52.210;21.174;2023-12-14T01:55:03;44.50;;;23.85;;
18407;SDS011;9330;52.210;21.174;2023-12-14T01:57:30;42.45;;;23.27;;
18407;SDS011;9330;52.210;21.174;2023-12-14T01:59:57;39.83;;;23.83;;
18407;SDS011;9330;52.210;21.174;2023-12-14T02:02:24;41.15;;;23.55;;
18407;SDS011;9330;52.210;21.174;2023-12-14T02:04:51;37.08;;;21.25;;
18407;SDS011;9330;52.210;21.174;2023-12-14T02:07:18;39.38;;;23.55;;
18407;SDS011;9330;52.210;21.174;2023-12-14T02:09:47;41.70;;;24.13;;
18407;SDS011;9330;52.210;21.174;2023-12-14T02:12:15;35.25;;;20.95;;
18407;SDS011;9330;52.210;21.174;2023-12-14T02:14:42;39.03;;;22.77;;
18407;SDS011;9330;52.210;21.174;2023-12-14T02:17:09;35.67;;;21.33;;
18407;SDS011;9330;52.210;21.174;2023-12-14T02:19:36;41.85;;;23.70;;
18407;SDS011;9330;52.210;21.174;2023-12-14T02:22:03;36.15;;;22.05;;
18407;SDS011;9330;52.210;21.174;2023-12-14T02:24:31;44.05;;;24.98;;
18407;SDS011;9330;52.210;21.174;2023-12-14T02:26:58;37.00;;;21.58;;
18407;SDS011;9330;52.210;21.174;2023-12-14T02:29:25;36.10;;;22.13;;
18407;SDS011;9330;52.210;21.174;2023-12-14T02:31:52;49.53;;;26.42;;
18407;SDS011;9330;52.210;21.174;2023-12-14T02:34:19;44.97;;;25.30;;
18407;SDS011;9330;52.210;21.174;2023-12-14T02:36:46;36.13;;;23.00;;
18407;SDS011;9330;52.210;21.174;2023-12-14T02:39:13;47.22;;;26.48;;
18407;SDS011;9330;52.210;21.174;2023-12-14T02:41:41;40.60;;;24.13;;
18407;SDS011;9330;52.210;21.174;2023-12-14T02:44:08;58.45;;;29.83;;
18407;SDS011;9330;52.210;21.174;2023-12-14T02:46:34;40.53;;;24.10;;
18407;SDS011;9330;52.210;21.174;2023-12-14T02:49:01;51.60;;;28.63;;
18407;SDS011;9330;52.210;21.174;2023-12-14T02:51:28;44.92;;;25.52;;
18407;SDS011;9330;52.210;21.174;2023-12-14T02:53:55;44.92;;;26.25;;
18407;SDS011;9330;52.210;21.174;2023-12-14T02:56:23;52.67;;;26.83;;
18407;SDS011;9330;52.210;21.174;2023-12-14T02:58:51;41.63;;;23.67;;
18407;SDS011;9330;52.210;21.174;2023-12-14T03:01:19;55.15;;;27.42;;
18407;SDS011;9330;52.210;21.174;2023-12-14T03:03:46;41.38;;;23.20;;
18407;SDS011;9330;52.210;21.174;2023-12-14T03:06:13;43.53;;;24.38;;
18407;SDS011;9330;52.210;21.174;2023-12-14T03:08:40;41.13;;;24.45;;
18407;SDS011;9330;52.210;21.174;2023-12-14T03:11:07;43.65;;;24.20;;
18407;SDS011;9330;52.210;21.174;2023-12-14T03:13:33;44.45;;;26.20;;
18407;SDS011;9330;52.210;21.174;2023-12-14T03:16:02;41.92;;;24.17;;
18407;SDS011;9330;52.210;21.174;2023-12-14T03:18:29;46.63;;;24.98;;
18407;SDS011;9330;52.210;21.174;2023-12-14T03:20:56;41.95;;;25.50;;
18407;SDS011;9330;52.210;21.174;2023-12-14T03:23:22;41.20;;;23.85;;
18407;SDS011;9330;52.210;21.174;2023-12-14T03:25:49;44.22;;;25.88;;
18407;SDS011;9330;52.210;21.174;2023-12-14T03:28:16;43.20;;;24.88;;
18407;SDS011;9330;52.210;21.174;2023-12-14T03:30:43;42.60;;;24.63;;
18407;SDS011;9330;52.210;21.174;2023-12-14T03:33:11;41.60;;;23.40;;
18407;SDS011;9330;52.210;21.174;2023-12-14T03:35:38;40.10;;;23.05;;
18407;SDS011;9330;52.210;21.174;2023-12-14T03:38:07;41.25;;;23.20;;
18407;SDS011;9330;52.210;21.174;2023-12-14T03:40:34;41.33;;;22.98;;
18407;SDS011;9330;52.210;21.174;2023-12-14T03:43:00;42.63;;;24.10;;
18407;SDS011;9330;52.210;21.174;2023-12-14T03:45:28;42.10;;;23.20;;
18407;SDS011;9330;52.210;21.174;2023-12-14T03:47:55;56.83;;;25.30;;
18407;SDS011;9330;52.210;21.174;2023-12-14T03:50:23;42.97;;;23.77;;
18407;SDS011;9330;52.210;21.174;2023-12-14T03:52:50;40.13;;;22.15;;
18407;SDS011;9330;52.210;21.174;2023-12-14T03:55:17;39.78;;;21.85;;
18407;SDS011;9330;52.210;21.174;2023-12-14T03:57:44;42.88;;;22.88;;
18407;SDS011;9330;52.210;21.174;2023-12-14T04:00:11;44.25;;;22.77;;
18407;SDS011;9330;52.210;21.174;2023-12-14T04:02:38;35.97;;;20.05;;
18407;SDS011;9330;52.210;21.174;2023-12-14T04:05:06;39.42;;;21.40;;
18407;SDS011;9330;52.210;21.174;2023-12-14T04:07:35;37.95;;;20.13;;
18407;SDS011;9330;52.210;21.174;2023-12-14T04:10:04;42.92;;;22.17;;
18407;SDS011;9330;52.210;21.174;2023-12-14T04:12:32;40.30;;;20.85;;
18407;SDS011;9330;52.210;21.174;2023-12-14T04:14:59;39.40;;;21.48;;
18407;SDS011;9330;52.210;21.174;2023-12-14T04:17:25;37.10;;;21.00;;
18407;SDS011;9330;52.210;21.174;2023-12-14T04:19:52;37.35;;;21.17;;
18407;SDS011;9330;52.210;21.174;2023-12-14T04:22:19;47.58;;;24.48;;
18407;SDS011;9330;52.210;21.174;2023-12-14T04:24:47;37.60;;;20.98;;
18407;SDS011;9330;52.210;21.174;2023-12-14T04:27:14;37.67;;;20.27;;
18407;SDS011;9330;52.210;21.174;2023-12-14T04:29:41;38.78;;;21.13;;
18407;SDS011;9330;52.210;21.174;2023-12-14T04:32:09;46.00;;;23.15;;
18407;SDS011;9330;52.210;21.174;2023-12-14T04:34:36;41.63;;;21.95;;
18407;SDS011;9330;52.210;21.174;2023-12-14T04:37:03;39.75;;;20.52;;
18407;SDS011;9330;52.210;21.174;2023-12-14T04:39:30;35.50;;;19.90;;
18407;SDS011;9330;52.210;21.174;2023-12-14T04:41:58;43.20;;;22.35;;
18407;SDS011;9330;52.210;21.174;2023-12-14T04:44:25;51.67;;;24.33;;
18407;SDS011;9330;52.210;21.174;2023-12-14T04:46:52;36.13;;;20.00;;
18407;SDS011;9330;52.210;21.174;2023-12-14T04:49:18;40.35;;;21.42;;
18407;SDS011;9330;52.210;21.174;2023-12-14T04:51:45;39.35;;;20.98;;
18407;SDS011;9330;52.210;21.174;2023-12-14T04:54:12;41.13;;;21.90;;
18407;SDS011;9330;52.210;21.174;2023-12-14T04:56:38;40.58;;;21.65;;
18407;SDS011;9330;52.210;21.174;2023-12-14T04:59:07;42.92;;;22.17;;
18407;SDS011;9330;52.210;21.174;2023-12-14T05:01:34;42.38;;;21.55;;
18407;SDS011;9330;52.210;21.174;2023-12-14T05:04:01;41.55;;;21.45;;
18407;SDS011;9330;52.210;21.174;2023-12-14T05:06:28;36.85;;;19.20;;
18407;SDS011;9330;52.210;21.174;2023-12-14T05:08:58;37.67;;;20.67;;
18407;SDS011;9330;52.210;21.174;2023-12-14T05:11:27;40.20;;;20.55;;
18407;SDS011;9330;52.210;21.174;2023-12-14T05:13:53;35.00;;;19.77;;
18407;SDS011;9330;52.210;21.174;2023-12-14T05:16:22;35.92;;;19.23;;
18407;SDS011;9330;52.210;21.174;2023-12-14T05:18:51;48.45;;;23.42;;
18407;SDS011;9330;52.210;21.174;2023-12-14T05:21:18;39.22;;;20.38;;
18407;SDS011;9330;52.210;21.174;2023-12-14T05:23:45;38.20;;;19.17;;
18407;SDS011;9330;52.210;21.174;2023-12-14T05:26:12;35.63;;;19.48;;
18407;SDS011;9330;52.210;21.174;2023-12-14T05:28:40;35.47;;;18.67;;
18407;SDS011;9330;52.210;21.174;2023-12-14T05:31:07;40.78;;;20.40;;
18407;SDS011;9330;52.210;21.174;2023-12-14T05:33:37;37.25;;;19.88;;
18407;SDS011;9330;52.210;21.174;2023-12-14T05:36:05;33.45;;;19.60;;
18407;SDS011;9330;52.210;21.174;2023-12-14T05:38:35;35.83;;;20.42;;
18407;SDS011;9330;52.210;21.174;2023-12-14T05:41:04;35.28;;;19.33;;
18407;SDS011;9330;52.210;21.174;2023-12-14T05:43:30;39.85;;;22.15;;
18407;SDS011;9330;52.210;21.174;2023-12-14T05:45:57;56.28;;;28.48;;
18407;SDS011;9330;52.210;21.174;2023-12-14T05:48:24;42.58;;;24.83;;
18407;SDS011;9330;52.210;21.174;2023-12-14T05:50:54;44.30;;;23.33;;
18407;SDS011;9330;52.210;21.174;2023-12-14T05:53:22;38.33;;;20.67;;
18407;SDS011;9330;52.210;21.174;2023-12-14T05:55:49;43.42;;;23.13;;
18407;SDS011;9330;52.210;21.174;2023-12-14T05:58:16;39.03;;;21.20;;
18407;SDS011;9330;52.210;21.174;2023-12-14T06:00:43;44.03;;;24.20;;
18407;SDS011;9330;52.210;21.174;2023-12-14T06:03:10;43.10;;;24.15;;
18407;SDS011;9330;52.210;21.174;2023-12-14T06:05:37;38.65;;;21.48;;
18407;SDS011;9330;52.210;21.174;2023-12-14T06:08:05;46.40;;;23.63;;
18407;SDS011;9330;52.210;21.174;2023-12-14T06:10:32;35.15;;;20.80;;
18407;SDS011;9330;52.210;21.174;2023-12-14T06:12:59;51.65;;;25.52;;
18407;SDS011;9330;52.210;21.174;2023-12-14T06:15:25;38.63;;;21.38;;
18407;SDS011;9330;52.210;21.174;2023-12-14T06:17:53;41.03;;;21.52;;
18407;SDS011;9330;52.210;21.174;2023-12-14T06:20:20;38.95;;;21.33;;
18407;SDS011;9330;52.210;21.174;2023-12-14T06:22:46;47.50;;;25.48;;
18407;SDS011;9330;52.210;21.174;2023-12-14T06:25:15;37.67;;;22.20;;
18407;SDS011;9330;52.210;21.174;2023-12-14T06:27:41;37.10;;;20.83;;
18407;SDS011;9330;52.210;21.174;2023-12-14T06:30:10;36.78;;;20.38;;
18407;SDS011;9330;52.210;21.174;2023-12-14T06:32:37;48.63;;;23.65;;
18407;SDS011;9330;52.210;21.174;2023-12-14T06:35:04;37.97;;;20.75;;
18407;SDS011;9330;52.210;21.174;2023-12-14T06:37:32;35.85;;;20.70;;
18407;SDS011;9330;52.210;21.174;2023-12-14T06:39:59;38.20;;;19.83;;
18407;SDS011;9330;52.210;21.174;2023-12-14T06:42:27;35.35;;;20.10;;
18407;SDS011;9330;52.210;21.174;2023-12-14T06:44:55;36.85;;;19.27;;
18407;SDS011;9330;52.210;21.174;2023-12-14T06:47:22;38.95;;;20.30;;
18407;SDS011;9330;52.210;21.174;2023-12-14T06:49:49;38.25;;;20.65;;
18407;SDS011;9330;52.210;21.174;2023-12-14T06:52:16;43.55;;;22.33;;
18407;SDS011;9330;52.210;21.174;2023-12-14T06:54:43;40.60;;;20.42;;
18407;SDS011;9330;52.210;21.174;2023-12-14T06:57:09;42.70;;;21.40;;
18407;SDS011;9330;52.210;21.174;2023-12-14T06:59:38;42.35;;;21.10;;
18407;SDS011;9330;52.210;21.174;2023-12-14T07:02:05;37.28;;;20.10;;
18407;SDS011;9330;52.210;21.174;2023-12-14T07:04:32;32.80;;;18.10;;
18407;SDS011;9330;52.210;21.174;2023-12-14T07:06:59;34.47;;;18.65;;
18407;SDS011;9330;52.210;21.174;2023-12-14T07:09:25;32.72;;;18.27;;
18407;SDS011;9330;52.210;21.174;2023-12-14T07:11:52;35.45;;;18.88;;
18407;SDS011;9330;52.210;21.174;2023-12-14T07:14:19;37.03;;;19.45;;
18407;SDS011;9330;52.210;21.174;2023-12-14T07:16:47;33.35;;;18.80;;
18407;SDS011;9330;52.210;21.174;2023-12-14T07:19:14;32.65;;;17.90;;
18407;SDS011;9330;52.210;21.174;2023-12-14T07:21:41;37.53;;;19.67;;
18407;SDS011;9330;52.210;21.174;2023-12-14T07:24:08;33.58;;;18.50;;
18407;SDS011;9330;52.210;21.174;2023-12-14T07:26:35;36.33;;;19.83;;
18407;SDS011;9330;52.210;21.174;2023-12-14T07:29:01;35.97;;;19.50;;
18407;SDS011;9330;52.210;21.174;2023-12-14T07:31:28;32.83;;;17.40;;
18407;SDS011;9330;52.210;21.174;2023-12-14T07:33:56;33.92;;;18.25;;
18407;SDS011;9330;52.210;21.174;2023-12-14T07:36:23;29.80;;;17.08;;
18407;SDS011;9330;52.210;21.174;2023-12-14T07:38:51;32.75;;;18.05;;
18407;SDS011;9330;52.210;21.174;2023-12-14T07:41:19;33.08;;;17.45;;
18407;SDS011;9330;52.210;21.174;2023-12-14T07:43:48;34.25;;;18.25;;
18407;SDS011;9330;52.210;21.174;2023-12-14T07:46:14;32.53;;;17.30;;
18407;SDS011;9330;52.210;21.174;2023-12-14T07:48:41;35.50;;;18.00;;
18407;SDS011;9330;52.210;21.174;2023-12-14T07:51:10;31.88;;;16.92;;
18407;SDS011;9330;52.210;21.174;2023-12-14T07:53:37;30.85;;;16.63;;
18407;SDS011;9330;52.210;21.174;2023-12-14T07:56:04;32.40;;;17.17;;
18407;SDS011;9330;52.210;21.174;2023-12-14T07:58:31;30.50;;;17.67;;
18407;SDS011;9330;52.210;21.174;2023-12-14T08:00:58;36.63;;;18.27;;
18407;SDS011;9330;52.210;21.174;2023-12-14T08:03:27;31.25;;;18.08;;
18407;SDS011;9330;52.210;21.174;2023-12-14T08:05:54;30.20;;;17.15;;
18407;SDS011;9330;52.210;21.174;2023-12-14T08:08:22;29.35;;;16.33;;
18407;SDS011;9330;52.210;21.174;2023-12-14T08:10:49;26.52;;;15.68;;
18407;SDS011;9330;52.210;21.174;2023-12-14T08:13:16;31.02;;;16.90;;
18407;SDS011;9330;52.210;21.174;2023-12-14T08:15:43;30.85;;;17.27;;
18407;SDS011;9330;52.210;21.174;2023-12-14T08:18:10;30.45;;;16.42;;
18407;SDS011;9330;52.210;21.174;2023-12-14T08:20:37;27.70;;;15.25;;
18407;SDS011;9330;52.210;21.174;2023-12-14T08:23:04;31.00;;;16.33;;
18407;SDS011;9330;52.210;21.174;2023-12-14T08:25:33;31.77;;;19.63;;
18407;SDS011;9330;52.210;21.174;2023-12-14T08:28:00;29.70;;;17.52;;
18407;SDS011;9330;52.210;21.174;2023-12-14T08:30:27;29.65;;;16.70;;
18407;SDS011;9330;52.210;21.174;2023-12-14T08:32:53;27.52;;;15.85;;
18407;SDS011;9330;52.210;21.174;2023-12-14T08:35:21;34.70;;;19.00;;
18407;SDS011;9330;52.210;21.174;2023-12-14T08:37:47;42.42;;;23.88;;
18407;SDS011;9330;52.210;21.174;2023-12-14T08:40:14;33.00;;;18.65;;
18407;SDS011;9330;52.210;21.174;2023-12-14T08:42:42;30.85;;;18.20;;
18407;SDS011;9330;52.210;21.174;2023-12-14T08:45:09;26.42;;;15.85;;
18407;SDS011;9330;52.210;21.174;2023-12-14T08:47:37;25.60;;;15.32;;
18407;SDS011;9330;52.210;21.174;2023-12-14T08:50:05;24.70;;;14.20;;
18407;SDS011;9330;52.210;21.174;2023-12-14T08:52:32;26.48;;;15.60;;
18407;SDS011;9330;52.210;21.174;2023-12-14T08:54:59;28.30;;;16.38;;
18407;SDS011;9330;52.210;21.174;2023-12-14T08:57:27;29.80;;;16.90;;
18407;SDS011;9330;52.210;21.174;2023-12-14T08:59:55;30.42;;;17.08;;
18407;SDS011;9330;52.210;21.174;2023-12-14T09:02:22;27.02;;;15.77;;
18407;SDS011;9330;52.210;21.174;2023-12-14T09:04:49;27.02;;;16.00;;
18407;SDS011;9330;52.210;21.174;2023-12-14T09:07:16;25.95;;;14.90;;
18407;SDS011;9330;52.210;21.174;2023-12-14T09:09:43;27.40;;;16.45;;
18407;SDS011;9330;52.210;21.174;2023-12-14T09:12:10;27.67;;;16.13;;
18407;SDS011;9330;52.210;21.174;2023-12-14T09:14:37;29.85;;;16.83;;
18407;SDS011;9330;52.210;21.174;2023-12-14T09:17:05;27.95;;;17.08;;
18407;SDS011;9330;52.210;21.174;2023-12-14T09:19:32;27.83;;;17.30;;
18407;SDS011;9330;52.210;21.174;2023-12-14T09:21:59;29.17;;;18.52;;
18407;SDS011;9330;52.210;21.174;2023-12-14T09:24:26;27.45;;;16.98;;
18407;SDS011;9330;52.210;21.174;2023-12-14T09:26:53;29.02;;;17.75;;
18407;SDS011;9330;52.210;21.174;2023-12-14T09:29:20;34.47;;;19.83;;
18407;SDS011;9330;52.210;21.174;2023-12-14T09:31:47;28.55;;;17.92;;
18407;SDS011;9330;52.210;21.174;2023-12-14T09:34:16;35.60;;;20.52;;
18407;SDS011;9330;52.210;21.174;2023-12-14T09:36:43;31.80;;;18.98;;
18407;SDS011;9330;52.210;21.174;2023-12-14T09:39:12;33.13;;;19.40;;
18407;SDS011;9330;52.210;21.174;2023-12-14T09:41:40;33.88;;;18.92;;
18407;SDS011;9330;52.210;21.174;2023-12-14T09:44:07;33.85;;;20.33;;
18407;SDS011;9330;52.210;21.174;2023-12-14T09:46:36;34.17;;;19.83;;
18407;SDS011;9330;52.210;21.174;2023-12-14T09:49:03;36.88;;;22.75;;
18407;SDS011;9330;52.210;21.174;2023-12-14T09:51:32;41.33;;;25.17;;
18407;SDS011;9330;52.210;21.174;2023-12-14T09:53:59;39.40;;;24.30;;
18407;SDS011;9330;52.210;21.174;2023-12-14T09:56:25;40.53;;;24.30;;
18407;SDS011;9330;52.210;21.174;2023-12-14T09:58:53;39.75;;;22.75;;
18407;SDS011;9330;52.210;21.174;2023-12-14T10:01:23;41.35;;;23.50;;
18407;SDS011;9330;52.210;21.174;2023-12-14T10:03:50;36.35;;;21.67;;
18407;SDS011;9330;52.210;21.174;2023-12-14T10:06:36;39.22;;;21.60;;
18407;SDS011;9330;52.210;21.174;2023-12-14T10:09:04;37.10;;;21.55;;
18407;SDS011;9330;52.210;21.174;2023-12-14T10:11:34;33.20;;;20.13;;
18407;SDS011;9330;52.210;21.174;2023-12-14T10:14:01;33.17;;;20.98;;
18407;SDS011;9330;52.210;21.174;2023-12-14T10:16:29;35.95;;;21.85;;
18407;SDS011;9330;52.210;21.174;2023-12-14T10:18:58;32.75;;;21.58;;
18407;SDS011;9330;52.210;21.174;2023-12-14T10:21:26;36.33;;;22.30;;
18407;SDS011;9330;52.210;21.174;2023-12-14T10:23:56;30.88;;;20.27;;
18407;SDS011;9330;52.210;21.174;2023-12-14T10:26:23;29.02;;;17.98;;
18407;SDS011;9330;52.210;21.174;2023-12-14T10:28:50;28.88;;;19.23;;
18407;SDS011;9330;52.210;21.174;2023-12-14T10:31:17;29.80;;;18.80;;
18407;SDS011;9330;52.210;21.174;2023-12-14T10:33:45;28.58;;;17.70;;
18407;SDS011;9330;52.210;21.174;2023-12-14T10:36:12;26.80;;;17.23;;
18407;SDS011;9330;52.210;21.174;2023-12-14T10:38:40;32.28;;;19.88;;
18407;SDS011;9330;52.210;21.174;2023-12-14T10:41:10;27.83;;;18.88;;
18407;SDS011;9330;52.210;21.174;2023-12-14T10:43:39;28.35;;;18.73;;
18407;SDS011;9330;52.210;21.174;2023-12-14T10:46:09;23.55;;;15.77;;
18407;SDS011;9330;52.210;21.174;2023-12-14T10:48:36;22.60;;;15.50;;
18407;SDS011;9330;52.210;21.174;2023-12-14T10:51:06;22.05;;;14.80;;
18407;SDS011;9330;52.210;21.174;2023-12-14T10:53:33;26.83;;;16.70;;
18407;SDS011;9330;52.210;21.174;2023-12-14T10:56:01;20.83;;;14.32;;
18407;SDS011;9330;52.210;21.174;2023-12-14T10:58:45;22.40;;;15.75;;
18407;SDS011;9330;52.210;21.174;2023-12-14T11:01:13;21.52;;;14.05;;
18407;SDS011;9330;52.210;21.174;2023-12-14T11:03:42;20.08;;;13.82;;
18407;SDS011;9330;52.210;21.174;2023-12-14T11:08:59;18.05;;;12.98;;
18407;SDS011;9330;52.210;21.174;2023-12-14T11:11:31;27.52;;;16.98;;
18407;SDS011;9330;52.210;21.174;2023-12-14T11:14:10;18.23;;;11.90;;
18407;SDS011;9330;52.210;21.174;2023-12-14T11:16:38;20.13;;;12.45;;
18407;SDS011;9330;52.210;21.174;2023-12-14T11:19:25;19.25;;;12.20;;
18407;SDS011;9330;52.210;21.174;2023-12-14T11:24:55;15.77;;;11.85;;
18407;SDS011;9330;52.210;21.174;2023-12-14T11:27:25;22.65;;;14.95;;
18407;SDS011;9330;52.210;21.174;2023-12-14T11:29:55;19.88;;;13.45;;
18407;SDS011;9330;52.210;21.174;2023-12-14T11:32:24;17.35;;;11.95;;
18407;SDS011;9330;52.210;21.174;2023-12-14T11:34:51;17.73;;;12.40;;
18407;SDS011;9330;52.210;21.174;2023-12-14T11:37:18;17.90;;;11.75;;
18407;SDS011;9330;52.210;21.174;2023-12-14T11:39:45;15.40;;;10.68;;
18407;SDS011;9330;52.210;21.174;2023-12-14T11:42:16;17.40;;;11.13;;
18407;SDS011;9330;52.210;21.174;2023-12-14T11:44:45;15.55;;;11.02;;
18407;SDS011;9330;52.210;21.174;2023-12-14T11:47:13;14.70;;;10.88;;
18407;SDS011;9330;52.210;21.174;2023-12-14T11:49:40;19.33;;;13.07;;
18407;SDS011;9330;52.210;21.174;2023-12-14T11:52:07;17.75;;;11.82;;
18407;SDS011;9330;52.210;21.174;2023-12-14T11:54:34;13.48;;;9.85;;
18407;SDS011;9330;52.210;21.174;2023-12-14T11:57:03;14.40;;;10.13;;
18407;SDS011;9330;52.210;21.174;2023-12-14T11:59:34;13.43;;;9.18;;
18407;SDS011;9330;52.210;21.174;2023-12-14T12:02:01;16.30;;;10.90;;
18407;SDS011;9330;52.210;21.174;2023-12-14T12:04:29;15.88;;;10.82;;
18407;SDS011;9330;52.210;21.174;2023-12-14T12:07:00;17.48;;;11.45;;
18407;SDS011;9330;52.210;21.174;2023-12-14T12:09:35;16.63;;;11.52;;
18407;SDS011;9330;52.210;21.174;2023-12-14T12:12:05;19.27;;;12.02;;
18407;SDS011;9330;52.210;21.174;2023-12-14T12:14:32;19.60;;;12.18;;
18407;SDS011;9330;52.210;21.174;2023-12-14T12:16:59;20.10;;;12.45;;
18407;SDS011;9330;52.210;21.174;2023-12-14T12:19:26;18.23;;;12.35;;
18407;SDS011;9330;52.210;21.174;2023-12-14T12:21:54;22.30;;;14.23;;
18407;SDS011;9330;52.210;21.174;2023-12-14T12:24:21;23.42;;;14.52;;
18407;SDS011;9330;52.210;21.174;2023-12-14T12:26:48;24.63;;;14.52;;
18407;SDS011;9330;52.210;21.174;2023-12-14T12:29:15;21.92;;;13.88;;
18407;SDS011;9330;52.210;21.174;2023-12-14T12:31:43;21.88;;;13.40;;
18407;SDS011;9330;52.210;21.174;2023-12-14T12:34:10;24.13;;;15.50;;
18407;SDS011;9330;52.210;21.174;2023-12-14T12:36:37;24.40;;;14.38;;
18407;SDS011;9330;52.210;21.174;2023-12-14T12:39:05;24.08;;;15.15;;
18407;SDS011;9330;52.210;21.174;2023-12-14T12:41:32;23.92;;;15.23;;
18407;SDS011;9330;52.210;21.174;2023-12-14T12:43:59;23.60;;;14.90;;
18407;SDS011;9330;52.210;21.174;2023-12-14T12:46:30;27.58;;;15.35;;
18407;SDS011;9330;52.210;21.174;2023-12-14T12:48:58;26.00;;;15.05;;
18407;SDS011;9330;52.210;21.174;2023-12-14T12:51:25;27.02;;;16.83;;
18407;SDS011;9330;52.210;21.174;2023-12-14T12:53:52;27.40;;;16.63;;
18407;SDS011;9330;52.210;21.174;2023-12-14T12:56:20;30.25;;;17.45;;
18407;SDS011;9330;52.210;21.174;2023-12-14T12:58:47;33.15;;;18.45;;
18407;SDS011;9330;52.210;21.174;2023-12-14T13:01:15;34.90;;;18.17;;
18407;SDS011;9330;52.210;21.174;2023-12-14T13:03:41;25.02;;;15.48;;
18407;SDS011;9330;52.210;21.174;2023-12-14T13:06:08;33.30;;;17.40;;
18407;SDS011;9330;52.210;21.174;2023-12-14T13:08:35;29.10;;;17.17;;
18407;SDS011;9330;52.210;21.174;2023-12-14T13:11:02;30.75;;;17.38;;
18407;SDS011;9330;52.210;21.174;2023-12-14T13:13:30;28.15;;;15.32;;
18407;SDS011;9330;52.210;21.174;2023-12-14T13:15:57;29.80;;;16.63;;
18407;SDS011;9330;52.210;21.174;2023-12-14T13:18:24;27.13;;;16.00;;
18407;SDS011;9330;52.210;21.174;2023-12-14T13:20:51;22.88;;;13.90;;
18407;SDS011;9330;52.210;21.174;2023-12-14T13:23:18;23.92;;;15.13;;
18407;SDS011;9330;52.210;21.174;2023-12-14T13:25:44;27.75;;;14.98;;
18407;SDS011;9330;52.210;21.174;2023-12-14T13:28:11;23.60;;;14.73;;
18407;SDS011;9330;52.210;21.174;2023-12-14T13:30:40;24.90;;;14.73;;
18407;SDS011;9330;52.210;21.174;2023-12-14T13:33:07;28.20;;;15.95;;
18407;SDS011;9330;52.210;21.174;2023-12-14T13:35:37;24.25;;;15.23;;
18407;SDS011;9330;52.210;21.174;2023-12-14T13:38:03;32.75;;;18.25;;
18407;SDS011;9330;52.210;21.174;2023-12-14T13:40:29;25.98;;;15.27;;
18407;SDS011;9330;52.210;21.174;2023-12-14T13:42:56;31.40;;;16.70;;
18407;SDS011;9330;52.210;21.174;2023-12-14T13:45:25;24.58;;;15.82;;
18407;SDS011;9330;52.210;21.174;2023-12-14T13:47:56;26.83;;;15.63;;
18407;SDS011;9330;52.210;21.174;2023-12-14T13:50:23;22.92;;;13.90;;
18407;SDS011;9330;52.210;21.174;2023-12-14T13:52:51;24.65;;;15.07;;
18407;SDS011;9330;52.210;21.174;2023-12-14T13:55:18;24.15;;;14.93;;
18407;SDS011;9330;52.210;21.174;2023-12-14T13:57:45;25.00;;;14.45;;
18407;SDS011;9330;52.210;21.174;2023-12-14T14:00:13;23.75;;;14.48;;
18407;SDS011;9330;52.210;21.174;2023-12-14T14:02:41;24.73;;;13.93;;
18407;SDS011;9330;52.210;21.174;2023-12-14T14:05:09;24.77;;;15.50;;
18407;SDS011;9330;52.210;21.174;2023-12-14T14:07:36;25.55;;;15.32;;
18407;SDS011;9330;52.210;21.174;2023-12-14T14:10:02;24.38;;;14.95;;
18407;SDS011;9330;52.210;21.174;2023-12-14T14:12:30;28.35;;;16.38;;
18407;SDS011;9330;52.210;21.174;2023-12-14T14:14:57;27.75;;;16.55;;
18407;SDS011;9330;52.210;21.174;2023-12-14T14:17:24;23.52;;;14.90;;
18407;SDS011;9330;52.210;21.174;2023-12-14T14:19:50;26.70;;;16.15;;
18407;SDS011;9330;52.210;21.174;2023-12-14T14:22:19;25.15;;;15.77;;
18407;SDS011;9330;52.210;21.174;2023-12-14T14:24:46;24.65;;;15.60;;
18407;SDS011;9330;52.210;21.174;2023-12-14T14:27:12;27.77;;;16.65;;
18407;SDS011;9330;52.210;21.174;2023-12-14T14:29:40;25.50;;;16.00;;